sensor_id;sensor_type;location;lat;lon;timestamp;P1;durP1;ratioP1;P2;durP2;ratioP2
51718;SDS011;37795;53.236;5.704;2023-11-21T00:00:00;3.25;;;2.15;;
51718;SDS011;37795;53.236;5.704;2023-11-21T00:02:26;5.75;;;1.85;;
51718;SDS011;37795;53.236;5.704;2023-11-21T00:04:54;4.35;;;2.28;;
51718;SDS011;37795;53.236;5.704;2023-11-21T00:07:20;3.20;;;1.90;;
51718;SDS011;37795;53.236;5.704;2023-11-21T00:09:46;5.82;;;2.08;;
51718;SDS011;37795;53.236;5.704;2023-11-21T00:12:12;6.63;;;3.03;;
51718;SDS011;37795;53.236;5.704;2023-11-21T00:14:39;6.70;;;2.53;;
51718;SDS011;37795;53.236;5.704;2023-11-21T00:17:04;5.57;;;2.97;;
51718;SDS011;37795;53.236;5.704;2023-11-21T00:19:31;6.35;;;2.88;;
51718;SDS011;37795;53.236;5.704;2023-11-21T00:21:58;5.15;;;2.47;;
51718;SDS011;37795;53.236;5.704;2023-11-21T00:24:24;2.90;;;2.00;;
51718;SDS011;37795;53.236;5.704;2023-11-21T00:26:51;6.13;;;2.17;;
51718;SDS011;37795;53.236;5.704;2023-11-21T00:29:18;2.88;;;1.95;;
51718;SDS011;37795;53.236;5.704;2023-11-21T00:31:44;6.33;;;2.67;;
51718;SDS011;37795;53.236;5.704;2023-11-21T00:34:11;4.20;;;2.35;;
51718;SDS011;37795;53.236;5.704;2023-11-21T00:36:37;4.28;;;2.92;;
51718;SDS011;37795;53.236;5.704;2023-11-21T00:39:03;3.17;;;2.47;;
51718;SDS011;37795;53.236;5.704;2023-11-21T00:41:31;5.57;;;2.60;;
51718;SDS011;37795;53.236;5.704;2023-11-21T00:43:57;6.93;;;2.97;;
51718;SDS011;37795;53.236;5.704;2023-11-21T00:46:24;8.20;;;3.55;;
51718;SDS011;37795;53.236;5.704;2023-11-21T00:48:52;8.13;;;4.25;;
51718;SDS011;37795;53.236;5.704;2023-11-21T00:51:19;6.88;;;3.00;;
51718;SDS011;37795;53.236;5.704;2023-11-21T00:53:45;6.40;;;2.97;;
51718;SDS011;37795;53.236;5.704;2023-11-21T00:56:12;7.78;;;3.53;;
51718;SDS011;37795;53.236;5.704;2023-11-21T00:58:38;6.17;;;4.30;;
51718;SDS011;37795;53.236;5.704;2023-11-21T01:01:04;9.05;;;5.00;;
51718;SDS011;37795;53.236;5.704;2023-11-21T01:03:30;10.40;;;4.80;;
51718;SDS011;37795;53.236;5.704;2023-11-21T01:05:55;10.45;;;5.18;;
51718;SDS011;37795;53.236;5.704;2023-11-21T01:08:21;11.32;;;6.28;;
51718;SDS011;37795;53.236;5.704;2023-11-21T01:10:49;10.40;;;6.25;;
51718;SDS011;37795;53.236;5.704;2023-11-21T01:13:15;8.30;;;5.40;;
51718;SDS011;37795;53.236;5.704;2023-11-21T01:15:40;14.20;;;6.10;;
51718;SDS011;37795;53.236;5.704;2023-11-21T01:18:07;10.67;;;5.90;;
51718;SDS011;37795;53.236;5.704;2023-11-21T01:20:33;12.10;;;5.72;;
51718;SDS011;37795;53.236;5.704;2023-11-21T01:22:59;8.68;;;5.20;;
51718;SDS011;37795;53.236;5.704;2023-11-21T01:25:25;5.72;;;3.80;;
51718;SDS011;37795;53.236;5.704;2023-11-21T01:27:51;9.98;;;4.28;;
51718;SDS011;37795;53.236;5.704;2023-11-21T01:30:17;7.00;;;4.38;;
51718;SDS011;37795;53.236;5.704;2023-11-21T01:32:43;12.05;;;4.80;;
51718;SDS011;37795;53.236;5.704;2023-11-21T01:35:09;5.70;;;3.15;;
51718;SDS011;37795;53.236;5.704;2023-11-21T01:37:35;8.13;;;3.63;;
51718;SDS011;37795;53.236;5.704;2023-11-21T01:40:02;9.63;;;3.30;;
51718;SDS011;37795;53.236;5.704;2023-11-21T01:42:33;4.60;;;2.67;;
51718;SDS011;37795;53.236;5.704;2023-11-21T01:44:59;9.32;;;3.47;;
51718;SDS011;37795;53.236;5.704;2023-11-21T01:47:30;5.93;;;3.67;;
51718;SDS011;37795;53.236;5.704;2023-11-21T01:49:57;8.98;;;4.40;;
51718;SDS011;37795;53.236;5.704;2023-11-21T01:52:23;6.88;;;4.85;;
51718;SDS011;37795;53.236;5.704;2023-11-21T01:54:50;11.20;;;4.53;;
51718;SDS011;37795;53.236;5.704;2023-11-21T01:57:16;7.55;;;4.32;;
51718;SDS011;37795;53.236;5.704;2023-11-21T01:59:41;12.47;;;5.07;;
51718;SDS011;37795;53.236;5.704;2023-11-21T02:02:09;14.07;;;5.30;;
51718;SDS011;37795;53.236;5.704;2023-11-21T02:04:35;9.67;;;3.63;;
51718;SDS011;37795;53.236;5.704;2023-11-21T02:07:02;10.80;;;4.40;;
51718;SDS011;37795;53.236;5.704;2023-11-21T02:09:31;9.38;;;3.20;;
51718;SDS011;37795;53.236;5.704;2023-11-21T02:11:59;9.48;;;3.58;;
51718;SDS011;37795;53.236;5.704;2023-11-21T02:14:26;8.52;;;3.92;;
51718;SDS011;37795;53.236;5.704;2023-11-21T02:16:53;8.00;;;3.38;;
51718;SDS011;37795;53.236;5.704;2023-11-21T02:19:19;8.00;;;3.30;;
51718;SDS011;37795;53.236;5.704;2023-11-21T02:21:54;13.13;;;3.95;;
51718;SDS011;37795;53.236;5.704;2023-11-21T02:24:23;13.37;;;5.33;;
51718;SDS011;37795;53.236;5.704;2023-11-21T02:26:49;9.02;;;3.70;;
51718;SDS011;37795;53.236;5.704;2023-11-21T02:29:21;11.80;;;3.97;;
51718;SDS011;37795;53.236;5.704;2023-11-21T02:31:47;8.57;;;3.42;;
51718;SDS011;37795;53.236;5.704;2023-11-21T02:34:16;9.20;;;3.60;;
51718;SDS011;37795;53.236;5.704;2023-11-21T02:36:43;8.43;;;3.35;;
51718;SDS011;37795;53.236;5.704;2023-11-21T02:39:10;10.40;;;4.00;;
51718;SDS011;37795;53.236;5.704;2023-11-21T02:41:39;7.53;;;4.38;;
51718;SDS011;37795;53.236;5.704;2023-11-21T02:44:05;10.93;;;3.58;;
51718;SDS011;37795;53.236;5.704;2023-11-21T02:46:35;9.63;;;4.63;;
51718;SDS011;37795;53.236;5.704;2023-11-21T02:49:02;10.65;;;3.60;;
51718;SDS011;37795;53.236;5.704;2023-11-21T02:51:28;11.10;;;4.50;;
51718;SDS011;37795;53.236;5.704;2023-11-21T02:53:55;7.60;;;3.20;;
51718;SDS011;37795;53.236;5.704;2023-11-21T02:56:24;8.30;;;3.67;;
51718;SDS011;37795;53.236;5.704;2023-11-21T02:58:51;10.27;;;4.32;;
51718;SDS011;37795;53.236;5.704;2023-11-21T03:01:17;6.77;;;3.83;;
51718;SDS011;37795;53.236;5.704;2023-11-21T03:03:43;12.32;;;4.80;;
51718;SDS011;37795;53.236;5.704;2023-11-21T03:06:09;9.13;;;3.67;;
51718;SDS011;37795;53.236;5.704;2023-11-21T03:08:34;8.37;;;3.57;;
51718;SDS011;37795;53.236;5.704;2023-11-21T03:11:00;18.00;;;4.57;;
51718;SDS011;37795;53.236;5.704;2023-11-21T03:13:29;8.73;;;4.27;;
51718;SDS011;37795;53.236;5.704;2023-11-21T03:15:55;7.60;;;3.40;;
51718;SDS011;37795;53.236;5.704;2023-11-21T03:18:21;9.57;;;3.55;;
51718;SDS011;37795;53.236;5.704;2023-11-21T03:20:49;9.02;;;4.15;;
51718;SDS011;37795;53.236;5.704;2023-11-21T03:23:17;8.90;;;3.40;;
51718;SDS011;37795;53.236;5.704;2023-11-21T03:25:43;7.45;;;3.05;;
51718;SDS011;37795;53.236;5.704;2023-11-21T03:28:08;8.65;;;4.10;;
51718;SDS011;37795;53.236;5.704;2023-11-21T03:30:34;12.03;;;3.37;;
51718;SDS011;37795;53.236;5.704;2023-11-21T03:33:00;10.52;;;3.53;;
51718;SDS011;37795;53.236;5.704;2023-11-21T03:35:26;6.47;;;3.27;;
51718;SDS011;37795;53.236;5.704;2023-11-21T03:37:53;11.68;;;4.10;;
51718;SDS011;37795;53.236;5.704;2023-11-21T03:40:19;7.93;;;3.40;;
51718;SDS011;37795;53.236;5.704;2023-11-21T03:42:46;8.02;;;3.15;;
51718;SDS011;37795;53.236;5.704;2023-11-21T03:45:12;9.07;;;4.10;;
51718;SDS011;37795;53.236;5.704;2023-11-21T03:47:40;19.35;;;5.63;;
51718;SDS011;37795;53.236;5.704;2023-11-21T03:50:07;10.93;;;5.50;;
51718;SDS011;37795;53.236;5.704;2023-11-21T03:52:34;16.52;;;7.38;;
51718;SDS011;37795;53.236;5.704;2023-11-21T03:55:00;18.33;;;7.32;;
51718;SDS011;37795;53.236;5.704;2023-11-21T03:57:26;16.52;;;7.25;;
51718;SDS011;37795;53.236;5.704;2023-11-21T03:59:55;15.77;;;8.45;;
51718;SDS011;37795;53.236;5.704;2023-11-21T04:02:20;14.43;;;7.27;;
51718;SDS011;37795;53.236;5.704;2023-11-21T04:04:46;16.27;;;7.23;;
51718;SDS011;37795;53.236;5.704;2023-11-21T04:07:12;11.68;;;6.82;;
51718;SDS011;37795;53.236;5.704;2023-11-21T04:09:38;12.35;;;7.10;;
51718;SDS011;37795;53.236;5.704;2023-11-21T04:12:06;12.52;;;6.68;;
51718;SDS011;37795;53.236;5.704;2023-11-21T04:14:34;14.52;;;6.07;;
51718;SDS011;37795;53.236;5.704;2023-11-21T04:16:59;12.20;;;6.20;;
51718;SDS011;37795;53.236;5.704;2023-11-21T04:19:25;13.90;;;7.27;;
51718;SDS011;37795;53.236;5.704;2023-11-21T04:21:50;16.27;;;6.97;;
51718;SDS011;37795;53.236;5.704;2023-11-21T04:24:16;16.02;;;6.38;;
51718;SDS011;37795;53.236;5.704;2023-11-21T04:26:43;11.48;;;6.47;;
51718;SDS011;37795;53.236;5.704;2023-11-21T04:29:09;12.35;;;6.47;;
51718;SDS011;37795;53.236;5.704;2023-11-21T04:31:35;7.55;;;5.55;;
51718;SDS011;37795;53.236;5.704;2023-11-21T04:34:01;11.93;;;6.15;;
51718;SDS011;37795;53.236;5.704;2023-11-21T04:36:29;12.07;;;5.90;;
51718;SDS011;37795;53.236;5.704;2023-11-21T04:38:56;11.63;;;7.00;;
51718;SDS011;37795;53.236;5.704;2023-11-21T04:41:21;12.23;;;7.15;;
51718;SDS011;37795;53.236;5.704;2023-11-21T04:43:47;12.38;;;6.57;;
51718;SDS011;37795;53.236;5.704;2023-11-21T04:46:14;11.45;;;6.82;;
51718;SDS011;37795;53.236;5.704;2023-11-21T04:48:39;13.10;;;6.32;;
51718;SDS011;37795;53.236;5.704;2023-11-21T04:51:05;12.33;;;6.60;;
51718;SDS011;37795;53.236;5.704;2023-11-21T04:53:31;8.60;;;5.47;;
51718;SDS011;37795;53.236;5.704;2023-11-21T04:55:57;10.20;;;5.80;;
51718;SDS011;37795;53.236;5.704;2023-11-21T04:58:24;16.53;;;9.83;;
51718;SDS011;37795;53.236;5.704;2023-11-21T05:00:49;15.05;;;9.50;;
51718;SDS011;37795;53.236;5.704;2023-11-21T05:03:15;12.80;;;9.55;;
51718;SDS011;37795;53.236;5.704;2023-11-21T05:05:41;14.67;;;9.27;;
51718;SDS011;37795;53.236;5.704;2023-11-21T05:08:06;13.02;;;8.38;;
51718;SDS011;37795;53.236;5.704;2023-11-21T05:10:33;14.48;;;8.82;;
51718;SDS011;37795;53.236;5.704;2023-11-21T05:12:59;18.17;;;9.77;;
51718;SDS011;37795;53.236;5.704;2023-11-21T05:15:25;13.23;;;9.43;;
51718;SDS011;37795;53.236;5.704;2023-11-21T05:17:52;13.43;;;9.00;;
51718;SDS011;37795;53.236;5.704;2023-11-21T05:20:19;21.23;;;10.20;;
51718;SDS011;37795;53.236;5.704;2023-11-21T05:22:49;16.23;;;9.73;;
51718;SDS011;37795;53.236;5.704;2023-11-21T05:25:15;12.15;;;9.45;;
51718;SDS011;37795;53.236;5.704;2023-11-21T05:27:43;16.58;;;9.57;;
51718;SDS011;37795;53.236;5.704;2023-11-21T05:30:10;13.50;;;10.25;;
51718;SDS011;37795;53.236;5.704;2023-11-21T05:32:37;16.77;;;9.88;;
51718;SDS011;37795;53.236;5.704;2023-11-21T05:35:03;12.45;;;8.73;;
51718;SDS011;37795;53.236;5.704;2023-11-21T05:37:34;11.85;;;9.50;;
51718;SDS011;37795;53.236;5.704;2023-11-21T05:40:00;18.25;;;10.90;;
51718;SDS011;37795;53.236;5.704;2023-11-21T05:42:31;12.43;;;9.88;;
51718;SDS011;37795;53.236;5.704;2023-11-21T05:44:57;13.43;;;11.32;;
51718;SDS011;37795;53.236;5.704;2023-11-21T05:47:24;17.98;;;12.60;;
51718;SDS011;37795;53.236;5.704;2023-11-21T05:49:51;17.52;;;12.95;;
51718;SDS011;37795;53.236;5.704;2023-11-21T05:52:17;16.85;;;13.02;;
51718;SDS011;37795;53.236;5.704;2023-11-21T05:54:43;17.55;;;12.10;;
51718;SDS011;37795;53.236;5.704;2023-11-21T05:57:09;16.73;;;11.15;;
51718;SDS011;37795;53.236;5.704;2023-11-21T05:59:34;15.55;;;11.80;;
51718;SDS011;37795;53.236;5.704;2023-11-21T06:02:00;12.93;;;11.13;;
51718;SDS011;37795;53.236;5.704;2023-11-21T06:04:27;13.90;;;11.27;;
51718;SDS011;37795;53.236;5.704;2023-11-21T06:06:53;13.38;;;10.40;;
51718;SDS011;37795;53.236;5.704;2023-11-21T06:09:18;12.97;;;10.87;;
51718;SDS011;37795;53.236;5.704;2023-11-21T06:11:45;13.38;;;10.65;;
51718;SDS011;37795;53.236;5.704;2023-11-21T06:14:11;16.43;;;11.47;;
51718;SDS011;37795;53.236;5.704;2023-11-21T06:16:37;16.80;;;12.00;;
51718;SDS011;37795;53.236;5.704;2023-11-21T06:19:02;17.73;;;12.80;;
51718;SDS011;37795;53.236;5.704;2023-11-21T06:21:28;13.38;;;11.82;;
51718;SDS011;37795;53.236;5.704;2023-11-21T06:23:54;13.63;;;12.03;;
51718;SDS011;37795;53.236;5.704;2023-11-21T06:26:22;14.88;;;12.50;;
51718;SDS011;37795;53.236;5.704;2023-11-21T06:28:49;16.80;;;13.20;;
51718;SDS011;37795;53.236;5.704;2023-11-21T06:31:16;14.70;;;12.48;;
51718;SDS011;37795;53.236;5.704;2023-11-21T06:33:42;16.13;;;12.77;;
51718;SDS011;37795;53.236;5.704;2023-11-21T06:36:08;17.27;;;12.75;;
51718;SDS011;37795;53.236;5.704;2023-11-21T06:38:36;15.35;;;13.05;;
51718;SDS011;37795;53.236;5.704;2023-11-21T06:41:02;17.35;;;13.40;;
51718;SDS011;37795;53.236;5.704;2023-11-21T06:43:29;16.20;;;12.17;;
51718;SDS011;37795;53.236;5.704;2023-11-21T06:53:02;19.92;;;14.02;;
51718;SDS011;37795;53.236;5.704;2023-11-21T06:55:31;16.90;;;12.57;;
51718;SDS011;37795;53.236;5.704;2023-11-21T06:57:57;17.90;;;13.68;;
51718;SDS011;37795;53.236;5.704;2023-11-21T07:00:25;19.42;;;13.93;;
51718;SDS011;37795;53.236;5.704;2023-11-21T07:02:52;16.10;;;13.48;;
51718;SDS011;37795;53.236;5.704;2023-11-21T07:05:20;17.48;;;13.48;;
51718;SDS011;37795;53.236;5.704;2023-11-21T07:07:46;16.98;;;14.30;;
51718;SDS011;37795;53.236;5.704;2023-11-21T07:10:13;16.73;;;14.07;;
51718;SDS011;37795;53.236;5.704;2023-11-21T07:12:39;16.65;;;12.25;;
51718;SDS011;37795;53.236;5.704;2023-11-21T07:15:05;16.92;;;11.50;;
51718;SDS011;37795;53.236;5.704;2023-11-21T07:17:34;12.45;;;11.15;;
51718;SDS011;37795;53.236;5.704;2023-11-21T07:20:00;13.63;;;12.23;;
51718;SDS011;37795;53.236;5.704;2023-11-21T07:22:26;14.48;;;12.10;;
51718;SDS011;37795;53.236;5.704;2023-11-21T07:24:52;16.40;;;12.77;;
51718;SDS011;37795;53.236;5.704;2023-11-21T07:27:18;15.43;;;12.85;;
51718;SDS011;37795;53.236;5.704;2023-11-21T07:29:44;14.50;;;12.85;;
51718;SDS011;37795;53.236;5.704;2023-11-21T07:32:10;14.18;;;11.63;;
51718;SDS011;37795;53.236;5.704;2023-11-21T07:34:36;14.40;;;12.23;;
51718;SDS011;37795;53.236;5.704;2023-11-21T07:37:02;13.88;;;11.93;;
51718;SDS011;37795;53.236;5.704;2023-11-21T07:39:28;14.95;;;12.98;;
51718;SDS011;37795;53.236;5.704;2023-11-21T07:41:55;16.13;;;13.07;;
51718;SDS011;37795;53.236;5.704;2023-11-21T07:44:23;15.20;;;12.30;;
51718;SDS011;37795;53.236;5.704;2023-11-21T07:46:49;13.45;;;12.10;;
51718;SDS011;37795;53.236;5.704;2023-11-21T07:49:17;18.05;;;12.85;;
51718;SDS011;37795;53.236;5.704;2023-11-21T07:51:45;16.52;;;13.35;;
51718;SDS011;37795;53.236;5.704;2023-11-21T07:54:11;19.80;;;12.33;;
51718;SDS011;37795;53.236;5.704;2023-11-21T07:56:37;17.02;;;12.55;;
51718;SDS011;37795;53.236;5.704;2023-11-21T07:59:03;18.80;;;13.07;;
51718;SDS011;37795;53.236;5.704;2023-11-21T08:01:29;18.23;;;13.57;;
51718;SDS011;37795;53.236;5.704;2023-11-21T08:03:55;16.65;;;11.73;;
51718;SDS011;37795;53.236;5.704;2023-11-21T08:06:24;15.98;;;11.60;;
51718;SDS011;37795;53.236;5.704;2023-11-21T08:08:50;18.52;;;11.82;;
51718;SDS011;37795;53.236;5.704;2023-11-21T08:11:16;14.57;;;11.95;;
51718;SDS011;37795;53.236;5.704;2023-11-21T08:13:42;16.25;;;12.27;;
51718;SDS011;37795;53.236;5.704;2023-11-21T08:16:08;17.67;;;12.47;;
51718;SDS011;37795;53.236;5.704;2023-11-21T08:18:33;13.70;;;10.98;;
51718;SDS011;37795;53.236;5.704;2023-11-21T08:21:00;15.20;;;11.20;;
51718;SDS011;37795;53.236;5.704;2023-11-21T08:23:26;12.90;;;9.90;;
51718;SDS011;37795;53.236;5.704;2023-11-21T08:25:52;13.55;;;10.20;;
51718;SDS011;37795;53.236;5.704;2023-11-21T08:28:18;15.65;;;10.43;;
51718;SDS011;37795;53.236;5.704;2023-11-21T08:30:44;15.35;;;10.02;;
51718;SDS011;37795;53.236;5.704;2023-11-21T08:33:10;11.35;;;9.70;;
51718;SDS011;37795;53.236;5.704;2023-11-21T08:35:37;9.98;;;8.98;;
51718;SDS011;37795;53.236;5.704;2023-11-21T08:38:03;11.80;;;9.02;;
51718;SDS011;37795;53.236;5.704;2023-11-21T08:40:29;14.82;;;9.25;;
51718;SDS011;37795;53.236;5.704;2023-11-21T08:42:55;10.27;;;8.68;;
51718;SDS011;37795;53.236;5.704;2023-11-21T08:45:23;11.95;;;9.43;;
51718;SDS011;37795;53.236;5.704;2023-11-21T08:47:51;11.95;;;9.75;;
51718;SDS011;37795;53.236;5.704;2023-11-21T08:50:16;11.98;;;8.98;;
51718;SDS011;37795;53.236;5.704;2023-11-21T08:52:43;14.48;;;9.95;;
51718;SDS011;37795;53.236;5.704;2023-11-21T08:55:11;13.65;;;8.90;;
51718;SDS011;37795;53.236;5.704;2023-11-21T08:57:40;12.20;;;8.95;;
51718;SDS011;37795;53.236;5.704;2023-11-21T09:00:09;11.93;;;9.70;;
51718;SDS011;37795;53.236;5.704;2023-11-21T09:02:37;9.77;;;8.68;;
51718;SDS011;37795;53.236;5.704;2023-11-21T09:05:06;12.77;;;10.02;;
51718;SDS011;37795;53.236;5.704;2023-11-21T09:07:36;14.60;;;10.00;;
51718;SDS011;37795;53.236;5.704;2023-11-21T09:10:03;10.90;;;8.55;;
51718;SDS011;37795;53.236;5.704;2023-11-21T09:12:32;9.77;;;8.48;;
51718;SDS011;37795;53.236;5.704;2023-11-21T09:15:00;9.25;;;8.20;;
51718;SDS011;37795;53.236;5.704;2023-11-21T09:17:30;9.17;;;8.23;;
51718;SDS011;37795;53.236;5.704;2023-11-21T09:19:56;10.80;;;8.52;;
51718;SDS011;37795;53.236;5.704;2023-11-21T09:22:22;14.07;;;9.00;;
51718;SDS011;37795;53.236;5.704;2023-11-21T09:24:50;9.75;;;8.30;;
51718;SDS011;37795;53.236;5.704;2023-11-21T09:27:16;11.70;;;9.05;;
51718;SDS011;37795;53.236;5.704;2023-11-21T09:29:42;10.93;;;8.85;;
51718;SDS011;37795;53.236;5.704;2023-11-21T09:32:08;12.43;;;8.83;;
51718;SDS011;37795;53.236;5.704;2023-11-21T09:34:37;11.48;;;9.07;;
51718;SDS011;37795;53.236;5.704;2023-11-21T09:37:06;11.55;;;10.13;;
51718;SDS011;37795;53.236;5.704;2023-11-21T09:39:32;11.67;;;10.03;;
51718;SDS011;37795;53.236;5.704;2023-11-21T09:42:23;11.70;;;10.55;;
51718;SDS011;37795;53.236;5.704;2023-11-21T09:47:24;12.20;;;10.35;;
51718;SDS011;37795;53.236;5.704;2023-11-21T09:49:49;13.50;;;11.43;;
51718;SDS011;37795;53.236;5.704;2023-11-21T09:52:22;12.30;;;10.00;;
51718;SDS011;37795;53.236;5.704;2023-11-21T09:54:50;11.43;;;9.75;;
51718;SDS011;37795;53.236;5.704;2023-11-21T09:57:23;9.63;;;8.67;;
51718;SDS011;37795;53.236;5.704;2023-11-21T09:59:53;9.65;;;8.73;;
51718;SDS011;37795;53.236;5.704;2023-11-21T10:02:25;8.65;;;7.75;;
51718;SDS011;37795;53.236;5.704;2023-11-21T10:04:53;7.97;;;7.18;;
51718;SDS011;37795;53.236;5.704;2023-11-21T10:07:20;11.60;;;8.50;;
51718;SDS011;37795;53.236;5.704;2023-11-21T10:09:46;11.48;;;7.97;;
51718;SDS011;37795;53.236;5.704;2023-11-21T10:12:15;9.85;;;8.80;;
51718;SDS011;37795;53.236;5.704;2023-11-21T10:14:42;11.30;;;9.00;;
51718;SDS011;37795;53.236;5.704;2023-11-21T10:17:12;9.35;;;8.40;;
51718;SDS011;37795;53.236;5.704;2023-11-21T10:19:41;12.55;;;8.93;;
51718;SDS011;37795;53.236;5.704;2023-11-21T10:22:07;11.25;;;9.05;;
51718;SDS011;37795;53.236;5.704;2023-11-21T10:24:34;12.55;;;8.88;;
51718;SDS011;37795;53.236;5.704;2023-11-21T10:27:00;12.27;;;9.00;;
51718;SDS011;37795;53.236;5.704;2023-11-21T10:29:29;8.98;;;8.07;;
51718;SDS011;37795;53.236;5.704;2023-11-21T10:31:55;10.48;;;9.45;;
51718;SDS011;37795;53.236;5.704;2023-11-21T10:34:23;10.23;;;8.35;;
51718;SDS011;37795;53.236;5.704;2023-11-21T10:36:49;8.90;;;8.00;;
51718;SDS011;37795;53.236;5.704;2023-11-21T10:39:19;9.40;;;8.40;;
51718;SDS011;37795;53.236;5.704;2023-11-21T10:41:46;11.30;;;9.18;;
51718;SDS011;37795;53.236;5.704;2023-11-21T10:44:16;10.38;;;9.13;;
51718;SDS011;37795;53.236;5.704;2023-11-21T10:53:02;13.73;;;8.65;;
51718;SDS011;37795;53.236;5.704;2023-11-21T10:55:29;10.55;;;9.02;;
51718;SDS011;37795;53.236;5.704;2023-11-21T10:57:58;11.45;;;9.23;;
51718;SDS011;37795;53.236;5.704;2023-11-21T11:00:25;11.63;;;8.93;;
51718;SDS011;37795;53.236;5.704;2023-11-21T11:02:52;10.48;;;9.35;;
51718;SDS011;37795;53.236;5.704;2023-11-21T11:05:22;9.10;;;8.00;;
51718;SDS011;37795;53.236;5.704;2023-11-21T11:07:58;10.30;;;8.55;;
51718;SDS011;37795;53.236;5.704;2023-11-21T11:10:28;11.43;;;9.50;;
51718;SDS011;37795;53.236;5.704;2023-11-21T11:12:55;11.57;;;8.17;;
51718;SDS011;37795;53.236;5.704;2023-11-21T11:15:23;9.88;;;8.88;;
51718;SDS011;37795;53.236;5.704;2023-11-21T11:17:53;9.25;;;8.18;;
51718;SDS011;37795;53.236;5.704;2023-11-21T11:20:27;9.85;;;8.93;;
51718;SDS011;37795;53.236;5.704;2023-11-21T11:37:19;8.82;;;7.93;;
51718;SDS011;37795;53.236;5.704;2023-11-21T11:39:45;9.45;;;7.95;;
51718;SDS011;37795;53.236;5.704;2023-11-21T11:42:14;9.43;;;7.83;;
51718;SDS011;37795;53.236;5.704;2023-11-21T11:47:14;8.07;;;7.30;;
51718;SDS011;37795;53.236;5.704;2023-11-21T11:52:36;8.50;;;6.43;;
51718;SDS011;37795;53.236;5.704;2023-11-21T11:55:05;8.23;;;6.72;;
51718;SDS011;37795;53.236;5.704;2023-11-21T11:57:51;7.73;;;6.23;;
51718;SDS011;37795;53.236;5.704;2023-11-21T12:00:22;7.20;;;6.30;;
51718;SDS011;37795;53.236;5.704;2023-11-21T12:03:02;7.67;;;5.53;;
51718;SDS011;37795;53.236;5.704;2023-11-21T12:05:30;7.72;;;5.95;;
51718;SDS011;37795;53.236;5.704;2023-11-21T12:08:09;6.87;;;6.20;;
51718;SDS011;37795;53.236;5.704;2023-11-21T12:10:37;6.57;;;5.80;;
51718;SDS011;37795;53.236;5.704;2023-11-21T12:13:08;7.75;;;6.28;;
51718;SDS011;37795;53.236;5.704;2023-11-21T12:15:37;4.97;;;4.50;;
51718;SDS011;37795;53.236;5.704;2023-11-21T12:18:04;6.32;;;5.03;;
51718;SDS011;37795;53.236;5.704;2023-11-21T12:20:30;6.25;;;5.45;;
51718;SDS011;37795;53.236;5.704;2023-11-21T12:22:57;8.00;;;6.82;;
51718;SDS011;37795;53.236;5.704;2023-11-21T12:25:26;8.23;;;6.05;;
51718;SDS011;37795;53.236;5.704;2023-11-21T12:28:01;6.13;;;5.43;;
51718;SDS011;37795;53.236;5.704;2023-11-21T12:30:31;6.20;;;5.28;;
51718;SDS011;37795;53.236;5.704;2023-11-21T12:33:00;5.65;;;5.07;;
51718;SDS011;37795;53.236;5.704;2023-11-21T12:35:28;6.20;;;5.55;;
51718;SDS011;37795;53.236;5.704;2023-11-21T12:37:56;5.80;;;4.97;;
51718;SDS011;37795;53.236;5.704;2023-11-21T12:40:25;5.57;;;5.00;;
51718;SDS011;37795;53.236;5.704;2023-11-21T12:42:52;5.97;;;5.18;;
51718;SDS011;37795;53.236;5.704;2023-11-21T12:45:20;6.40;;;4.75;;
51718;SDS011;37795;53.236;5.704;2023-11-21T12:50:24;7.28;;;6.20;;
51718;SDS011;37795;53.236;5.704;2023-11-21T12:52:59;5.50;;;4.95;;
51718;SDS011;37795;53.236;5.704;2023-11-21T12:55:29;7.43;;;6.10;;
51718;SDS011;37795;53.236;5.704;2023-11-21T12:57:56;6.82;;;5.78;;
51718;SDS011;37795;53.236;5.704;2023-11-21T13:00:31;7.50;;;6.77;;
51718;SDS011;37795;53.236;5.704;2023-11-21T13:03:02;7.80;;;6.78;;
51718;SDS011;37795;53.236;5.704;2023-11-21T13:05:33;6.72;;;6.05;;
51718;SDS011;37795;53.236;5.704;2023-11-21T13:08:03;7.00;;;6.30;;
51718;SDS011;37795;53.236;5.704;2023-11-21T13:10:33;7.30;;;6.60;;
51718;SDS011;37795;53.236;5.704;2023-11-21T13:13:01;7.37;;;6.67;;
51718;SDS011;37795;53.236;5.704;2023-11-21T13:15:46;8.07;;;5.87;;
51718;SDS011;37795;53.236;5.704;2023-11-21T13:18:17;7.13;;;6.43;;
51718;SDS011;37795;53.236;5.704;2023-11-21T13:20:43;7.47;;;6.03;;
51718;SDS011;37795;53.236;5.704;2023-11-21T13:23:11;6.87;;;6.10;;
51718;SDS011;37795;53.236;5.704;2023-11-21T13:25:37;7.88;;;6.28;;
51718;SDS011;37795;53.236;5.704;2023-11-21T13:28:06;8.38;;;6.80;;
51718;SDS011;37795;53.236;5.704;2023-11-21T13:30:32;6.80;;;6.10;;
51718;SDS011;37795;53.236;5.704;2023-11-21T13:32:59;8.07;;;6.32;;
51718;SDS011;37795;53.236;5.704;2023-11-21T13:35:31;6.93;;;6.22;;
51718;SDS011;37795;53.236;5.704;2023-11-21T13:40:33;9.05;;;6.65;;
51718;SDS011;37795;53.236;5.704;2023-11-21T13:43:07;10.68;;;7.32;;
51718;SDS011;37795;53.236;5.704;2023-11-21T13:45:41;8.07;;;7.28;;
51718;SDS011;37795;53.236;5.704;2023-11-21T13:48:08;8.55;;;6.45;;
51718;SDS011;37795;53.236;5.704;2023-11-21T13:50:42;6.95;;;6.25;;
51718;SDS011;37795;53.236;5.704;2023-11-21T13:53:28;8.57;;;6.35;;
51718;SDS011;37795;53.236;5.704;2023-11-21T13:55:54;9.43;;;6.95;;
51718;SDS011;37795;53.236;5.704;2023-11-21T13:58:22;8.90;;;6.93;;
51718;SDS011;37795;53.236;5.704;2023-11-21T14:01:06;9.85;;;7.55;;
51718;SDS011;37795;53.236;5.704;2023-11-21T14:03:49;9.90;;;7.40;;
51718;SDS011;37795;53.236;5.704;2023-11-21T14:06:22;9.23;;;7.07;;
51718;SDS011;37795;53.236;5.704;2023-11-21T14:08:53;7.72;;;6.40;;
51718;SDS011;37795;53.236;5.704;2023-11-21T14:11:22;8.37;;;6.67;;
51718;SDS011;37795;53.236;5.704;2023-11-21T14:13:48;7.00;;;6.38;;
51718;SDS011;37795;53.236;5.704;2023-11-21T14:16:17;8.23;;;6.45;;
51718;SDS011;37795;53.236;5.704;2023-11-21T14:18:43;7.95;;;7.10;;
51718;SDS011;37795;53.236;5.704;2023-11-21T14:21:23;9.80;;;7.63;;
51718;SDS011;37795;53.236;5.704;2023-11-21T14:23:49;8.43;;;6.97;;
51718;SDS011;37795;53.236;5.704;2023-11-21T14:26:15;9.68;;;7.25;;
51718;SDS011;37795;53.236;5.704;2023-11-21T14:28:42;10.13;;;7.13;;
51718;SDS011;37795;53.236;5.704;2023-11-21T14:31:07;7.47;;;6.57;;
51718;SDS011;37795;53.236;5.704;2023-11-21T14:33:38;8.77;;;6.70;;
51718;SDS011;37795;53.236;5.704;2023-11-21T14:36:04;7.53;;;6.30;;
51718;SDS011;37795;53.236;5.704;2023-11-21T14:38:33;7.82;;;6.03;;
51718;SDS011;37795;53.236;5.704;2023-11-21T14:40:59;6.23;;;5.60;;
51718;SDS011;37795;53.236;5.704;2023-11-21T14:43:24;5.85;;;5.00;;
51718;SDS011;37795;53.236;5.704;2023-11-21T14:45:54;8.43;;;5.28;;
51718;SDS011;37795;53.236;5.704;2023-11-21T14:48:22;4.90;;;4.28;;
51718;SDS011;37795;53.236;5.704;2023-11-21T14:51:08;5.33;;;4.50;;
51718;SDS011;37795;53.236;5.704;2023-11-21T14:53:59;6.47;;;4.30;;
51718;SDS011;37795;53.236;5.704;2023-11-21T14:56:35;4.75;;;3.75;;
51718;SDS011;37795;53.236;5.704;2023-11-21T14:59:03;8.05;;;4.00;;
51718;SDS011;37795;53.236;5.704;2023-11-21T15:01:33;3.92;;;3.53;;
51718;SDS011;37795;53.236;5.704;2023-11-21T15:04:20;4.13;;;3.35;;
51718;SDS011;37795;53.236;5.704;2023-11-21T15:07:01;4.43;;;3.22;;
51718;SDS011;37795;53.236;5.704;2023-11-21T15:09:28;4.15;;;3.58;;
51718;SDS011;37795;53.236;5.704;2023-11-21T15:11:56;3.60;;;3.15;;
51718;SDS011;37795;53.236;5.704;2023-11-21T15:14:29;4.47;;;3.47;;
51718;SDS011;37795;53.236;5.704;2023-11-21T15:16:57;4.32;;;3.35;;
51718;SDS011;37795;53.236;5.704;2023-11-21T15:19:26;3.67;;;3.33;;
51718;SDS011;37795;53.236;5.704;2023-11-21T15:21:53;5.05;;;4.65;;